Terminal Aerodrome Forecast
Issued by NWS

Home | Current Version | Previous Version | Text Only | Print | Product List | Glossary On
Versions: 1 2 3 4 5 6 7 8 9 10 11 12 13 14 15 16 17 18 19 20 21 22 23 24 25 26 27 28 29 30 31 32 33 34 35 36 37 38 39 40 41 42 43 44 45 46
925
FTUS41 KBOX 192331
TAFBED
TAF
KBED 192331Z 2000/2024 01010KT 1SM BR OVC004
     FM200300 03009G21KT 3/4SM -SHRA BR OVC003
     FM201300 03011G24KT 3SM BR VCSH OVC008
     FM202100 02013G27KT 1 1/2SM BR OVC010=

USA.gov is the U.S. government's official web portal to all federal, state and local government web resources and services.